Time;durP1;ratioP1;P1;durP2;ratioP2;P2;SDS_P1;SDS_P2;PMS_P1;PMS_P2;Temp;Humidity;BMP_temperature;BMP_pressure;BME280_temperature;BME280_humidity;BME280_pressure;Samples;Min_cycle;Max_cycle;Signal;HPM_P1;HPM_P2
2022/05/24 00:01:50;;;;;;;42.10;28.50;;;14.10;99.90;;;;;;4940366;28;20049;-75
2022/05/24 00:04:18;;;;;;;35.60;28.77;;;14.10;99.90;;;;;;4949503;28;20031;-75
2022/05/24 00:06:44;;;;;;;41.22;30.17;;;14.10;99.90;;;;;;4950762;28;20035;-75
2022/05/24 00:09:09;;;;;;;38.53;28.73;;;14.10;99.90;;;;;;4949264;29;20502;-75
2022/05/24 00:11:35;;;;;;;42.38;32.03;;;14.10;99.90;;;;;;4946594;28;20039;-75
2022/05/24 00:14:00;;;;;;;43.17;33.70;;;14.10;99.90;;;;;;4950079;28;20054;-75
2022/05/24 00:16:27;;;;;;;46.72;35.42;;;14.10;99.90;;;;;;4948787;28;20039;-75
2022/05/24 00:18:52;;;;;;;49.03;35.15;;;14.10;99.90;;;;;;4951561;29;20031;-75
2022/05/24 00:21:18;;;;;;;50.22;34.95;;;14.10;99.90;;;;;;4950528;29;20023;-75
2022/05/24 00:23:43;;;;;;;50.70;35.35;;;14.00;99.90;;;;;;4950615;28;20038;-75
2022/05/24 00:26:21;;;;;;;52.22;37.33;;;14.10;99.90;;;;;;4950444;29;20034;-75
2022/05/24 00:28:46;;;;;;;47.10;36.03;;;14.10;99.90;;;;;;4946982;28;20055;-75
2022/05/24 00:31:12;;;;;;;50.63;36.40;;;14.00;99.90;;;;;;4952140;28;20151;-75
2022/05/24 00:33:37;;;;;;;47.85;35.58;;;14.00;99.90;;;;;;4951648;29;20038;-75
2022/05/24 00:36:06;;;;;;;53.17;36.13;;;14.00;99.90;;;;;;4950911;28;20042;-76
2022/05/24 00:38:39;;;;;;;46.72;33.90;;;14.00;99.90;;;;;;4949749;28;20019;-76
2022/05/24 00:41:25;;;;;;;47.83;33.80;;;14.00;99.90;;;;;;4951648;29;20038;-76
2022/05/24 00:44:08;;;;;;;46.70;33.25;;;13.90;99.90;;;;;;4949514;28;20077;-75
2022/05/24 00:46:53;;;;;;;53.88;37.10;;;13.90;99.90;;;;;;4950435;28;20038;-76
2022/05/24 00:50:03;;;;;;;54.25;36.33;;;13.80;99.90;;;;;;4950914;28;20074;-76
2022/05/24 00:52:54;;;;;;;54.28;36.47;;;13.80;99.90;;;;;;4932855;28;20039;-75
2022/05/24 00:55:22;;;;;;;57.63;38.00;;;13.70;99.90;;;;;;4951366;29;20035;-76
2022/05/24 00:58:16;;;;;;;57.13;39.05;;;13.70;99.90;;;;;;4946060;28;20410;-76
2022/05/24 01:00:42;;;;;;;57.08;37.47;;;13.70;99.90;;;;;;4943788;29;20042;-76
2022/05/24 01:03:09;;;;;;;53.40;38.13;;;13.60;99.90;;;;;;4950497;28;20060;-76
2022/05/24 01:05:35;;;;;;;57.33;39.55;;;13.60;99.90;;;;;;4944128;28;20383;-76
2022/05/24 01:08:00;;;;;;;52.53;38.67;;;13.50;99.90;;;;;;4943634;29;20035;-75
2022/05/24 01:10:34;;;;;;;51.28;35.53;;;13.50;99.90;;;;;;4939706;29;20070;-76
2022/05/24 01:13:20;;;;;;;47.70;34.25;;;13.50;99.90;;;;;;4951954;29;20031;-76
2022/05/24 01:15:46;;;;;;;52.28;32.92;;;13.40;99.90;;;;;;4946372;28;20488;-76
2022/05/24 01:18:12;;;;;;;44.90;31.20;;;13.40;99.90;;;;;;4946354;28;20028;-76
2022/05/24 01:20:43;;;;;;;41.95;30.17;;;13.30;99.90;;;;;;4951339;29;20510;-76
2022/05/24 01:23:38;;;;;;;46.22;31.85;;;13.30;99.90;;;;;;4950250;28;20042;-76
2022/05/24 01:26:36;;;;;;;41.08;29.38;;;13.20;99.90;;;;;;4926831;29;20042;-76
2022/05/24 01:29:06;;;;;;;36.97;27.08;;;13.20;99.90;;;;;;4941071;28;20027;-76
2022/05/24 01:37:03;;;;;;;43.20;28.13;;;13.00;99.90;;;;;;4946781;28;20053;-75
2022/05/24 01:39:29;;;;;;;43.75;28.58;;;13.00;99.90;;;;;;4950637;29;20041;-76
2022/05/24 01:41:54;;;;;;;38.25;26.13;;;13.00;99.90;;;;;;4938448;29;20036;-75
2022/05/24 01:44:29;;;;;;;34.53;24.48;;;13.00;99.90;;;;;;4949726;28;20050;-75
2022/05/24 01:46:55;;;;;;;35.83;24.88;;;13.00;99.90;;;;;;4952539;28;20027;-76
2022/05/24 01:49:25;;;;;;;35.67;23.63;;;12.90;99.90;;;;;;4949959;28;20133;-76
2022/05/24 01:52:06;;;;;;;33.45;21.75;;;12.90;99.90;;;;;;4951853;29;20059;-76
2022/05/24 01:54:38;;;;;;;32.50;21.42;;;12.90;99.90;;;;;;4945043;28;20035;-76
2022/05/24 01:57:15;;;;;;;33.10;20.83;;;12.90;99.90;;;;;;4945799;29;20035;-75
2022/05/24 01:59:44;;;;;;;30.70;19.73;;;12.80;99.90;;;;;;4948171;28;20032;-76
2022/05/24 02:02:09;;;;;;;29.13;19.88;;;12.80;99.90;;;;;;4950585;28;20055;-76
2022/05/24 02:04:35;;;;;;;28.98;18.02;;;12.80;99.90;;;;;;4950823;29;20388;-75
2022/05/24 02:07:07;;;;;;;29.30;17.98;;;12.80;99.90;;;;;;4948013;28;20488;-77
2022/05/24 02:09:35;;;;;;;24.80;16.25;;;12.70;99.90;;;;;;4950905;29;20532;-75
2022/05/24 02:12:28;;;;;;;23.40;14.55;;;12.70;99.90;;;;;;4945835;28;20467;-76
2022/05/24 02:14:57;;;;;;;27.15;15.30;;;12.70;99.90;;;;;;4943055;29;20515;-76
2022/05/24 02:17:29;;;;;;;25.15;13.38;;;12.60;99.90;;;;;;4943791;28;20035;-75
2022/05/24 02:19:59;;;;;;;22.45;12.45;;;12.50;99.90;;;;;;4948487;28;20538;-76
2022/05/24 02:22:26;;;;;;;18.92;12.60;;;12.50;99.90;;;;;;4950637;29;20040;-76
2022/05/24 02:25:06;;;;;;;17.98;10.98;;;12.40;99.90;;;;;;4948713;29;20090;-75
2022/05/24 02:27:38;;;;;;;18.50;10.07;;;12.40;99.90;;;;;;4950499;28;20166;-75
2022/05/24 02:30:04;;;;;;;16.40;10.23;;;12.40;99.90;;;;;;4950208;29;20129;-76
2022/05/24 02:32:30;;;;;;;14.30;8.68;;;12.30;99.90;;;;;;4949375;28;20321;-75
2022/05/24 02:34:55;;;;;;;18.63;9.20;;;12.30;99.90;;;;;;4947544;29;20118;-75
2022/05/24 02:37:21;;;;;;;16.45;8.50;;;12.20;99.90;;;;;;4949926;29;20043;-76
2022/05/24 02:42:50;;;;;;;16.00;7.70;;;12.20;99.90;;;;;;4955313;29;20094;-75
2022/05/24 02:45:16;;;;;;;12.15;7.28;;;12.10;99.90;;;;;;4951384;29;20031;-75
2022/05/24 02:47:42;;;;;;;12.68;6.32;;;12.10;99.90;;;;;;4950726;28;20019;-76
2022/05/24 02:50:11;;;;;;;15.70;7.10;;;12.00;99.90;;;;;;4953116;28;20505;-75
2022/05/24 02:52:38;;;;;;;14.20;7.97;;;12.00;99.90;;;;;;4953785;28;20399;-75
2022/05/24 02:55:13;;;;;;;11.73;6.97;;;12.00;99.90;;;;;;4950136;29;20506;-76
2022/05/24 02:57:39;;;;;;;15.00;7.15;;;12.10;99.90;;;;;;4954539;29;20480;-75
2022/05/24 03:00:08;;;;;;;15.55;6.93;;;12.10;99.90;;;;;;4946234;28;20045;-75
2022/05/24 03:02:34;;;;;;;13.23;6.95;;;12.10;99.90;;;;;;4949655;29;20039;-76
2022/05/24 03:05:01;;;;;;;19.15;7.55;;;12.10;99.90;;;;;;4946818;28;20034;-75
2022/05/24 03:10:10;;;;;;;13.63;6.07;;;12.10;99.90;;;;;;4951598;29;20486;-75
2022/05/24 03:15:20;;;;;;;11.25;6.05;;;12.10;99.90;;;;;;4952114;29;20037;-75
2022/05/24 03:17:45;;;;;;;14.60;6.22;;;12.20;99.90;;;;;;4952384;29;20110;-75
2022/05/24 03:20:11;;;;;;;8.90;4.90;;;12.20;99.90;;;;;;4952293;28;20444;-75
2022/05/24 03:22:37;;;;;;;8.93;4.70;;;12.20;99.90;;;;;;4951994;29;20053;-75
2022/05/24 03:25:03;;;;;;;10.50;5.00;;;12.30;99.90;;;;;;4952102;29;20039;-76
2022/05/24 03:27:28;;;;;;;13.07;4.55;;;12.30;99.90;;;;;;4949089;29;20024;-76
2022/05/24 03:29:54;;;;;;;9.73;4.55;;;12.30;99.90;;;;;;4950520;29;20037;-76
2022/05/24 03:32:19;;;;;;;9.23;3.90;;;12.30;99.90;;;;;;4943644;28;20461;-76
2022/05/24 03:37:29;;;;;;;9.27;4.28;;;12.40;99.90;;;;;;4953724;29;20029;-76
2022/05/24 03:39:55;;;;;;;7.07;3.97;;;12.40;99.90;;;;;;4950849;28;20117;-76
2022/05/24 03:42:22;;;;;;;9.25;3.85;;;12.40;99.90;;;;;;4947629;29;20038;-75
2022/05/24 03:44:47;;;;;;;9.63;4.72;;;12.40;99.90;;;;;;4940424;28;20049;-77
2022/05/24 03:47:13;;;;;;;11.48;4.95;;;12.40;99.90;;;;;;4948410;29;20031;-77
2022/05/24 03:49:39;;;;;;;10.68;5.10;;;12.40;99.90;;;;;;4948990;28;20042;-77
2022/05/24 03:52:05;;;;;;;9.88;4.28;;;12.40;99.90;;;;;;4950916;28;20392;-77
2022/05/24 03:54:30;;;;;;;11.82;4.80;;;12.30;99.90;;;;;;4949969;28;21405;-77
2022/05/24 03:59:40;;;;;;;16.02;5.45;;;12.30;99.90;;;;;;4949804;29;20098;-77
2022/05/24 04:02:06;;;;;;;11.77;4.65;;;12.30;99.90;;;;;;4939719;29;20563;-77
2022/05/24 04:04:32;;;;;;;11.70;5.32;;;12.30;99.90;;;;;;4946746;29;20119;-76
2022/05/24 04:06:57;;;;;;;9.45;4.60;;;12.40;99.90;;;;;;4954114;29;20075;-76
2022/05/24 04:09:23;;;;;;;8.13;5.28;;;12.40;99.90;;;;;;4952125;28;20455;-76
2022/05/24 04:11:48;;;;;;;10.48;5.25;;;12.30;99.90;;;;;;4947673;28;22055;-77
2022/05/24 04:14:14;;;;;;;11.85;5.68;;;12.30;99.90;;;;;;4946045;28;20086;-77
2022/05/24 04:16:39;;;;;;;12.27;5.85;;;12.30;99.90;;;;;;4926320;29;20055;-77
2022/05/24 04:19:05;;;;;;;9.15;5.75;;;12.30;99.90;;;;;;4951679;29;20075;-76
2022/05/24 04:24:33;;;;;;;17.52;6.65;;;12.30;99.90;;;;;;4943045;29;20034;-76
2022/05/24 04:26:59;;;;;;;12.02;6.55;;;12.30;99.90;;;;;;4950982;29;20031;-77
2022/05/24 04:29:24;;;;;;;13.50;7.00;;;12.30;99.90;;;;;;4950924;28;20435;-77
2022/05/24 04:31:51;;;;;;;14.85;7.32;;;12.30;99.90;;;;;;4952433;28;20514;-77
2022/05/24 04:34:16;;;;;;;10.95;7.63;;;12.30;99.90;;;;;;4950692;28;20035;-77
2022/05/24 04:36:42;;;;;;;13.98;8.02;;;12.30;99.90;;;;;;4937938;29;20031;-76
2022/05/24 04:39:07;;;;;;;12.63;7.68;;;12.40;99.90;;;;;;4961245;28;20562;-76
2022/05/24 04:44:17;;;;;;;13.38;8.98;;;12.30;99.90;;;;;;4947136;28;20086;-76
2022/05/24 04:49:27;;;;;;;19.70;8.65;;;12.30;99.90;;;;;;4951418;29;20089;-76
2022/05/24 04:51:56;;;;;;;16.08;9.77;;;12.30;99.90;;;;;;4949509;28;20031;-76
2022/05/24 04:54:22;;;;;;;16.08;9.10;;;12.30;99.90;;;;;;4945354;28;20023;-77
2022/05/24 04:56:47;;;;;;;14.80;8.18;;;12.30;99.90;;;;;;4942649;28;20494;-77
2022/05/24 04:59:13;;;;;;;12.00;9.63;;;12.30;99.90;;;;;;4946836;28;20035;-77
2022/05/24 05:01:39;;;;;;;21.35;11.63;;;12.30;99.90;;;;;;4948925;28;20058;-76
2022/05/24 05:04:05;;;;;;;17.30;10.15;;;12.30;99.90;;;;;;4949906;28;20043;-77
2022/05/24 05:06:30;;;;;;;12.90;9.70;;;12.30;99.90;;;;;;4948355;28;20043;-76
2022/05/24 05:08:56;;;;;;;20.92;10.27;;;12.40;99.90;;;;;;4948973;29;20063;-76
2022/05/24 05:11:21;;;;;;;14.82;9.82;;;12.40;99.90;;;;;;4946125;29;20023;-77
2022/05/24 05:14:20;;;;;;;18.75;9.77;;;12.40;99.90;;;;;;4949659;28;20027;-77
2022/05/24 05:16:45;;;;;;;15.63;9.55;;;12.40;99.90;;;;;;4939313;28;20487;-77
2022/05/24 05:19:12;;;;;;;15.45;9.23;;;12.30;99.90;;;;;;4948367;28;20029;-77
2022/05/24 05:21:39;;;;;;;18.20;9.93;;;12.30;99.90;;;;;;4944876;28;20035;-76
2022/05/24 05:24:06;;;;;;;17.52;10.13;;;12.30;99.90;;;;;;4944507;28;20023;-77
2022/05/24 05:26:32;;;;;;;16.77;9.80;;;12.40;99.90;;;;;;4950963;29;20031;-77
2022/05/24 05:28:58;;;;;;;17.85;10.60;;;12.40;99.90;;;;;;4949248;28;20078;-77
2022/05/24 05:31:26;;;;;;;17.25;10.55;;;12.40;99.90;;;;;;4947408;28;20035;-77
2022/05/24 05:33:53;;;;;;;18.63;11.23;;;12.40;99.90;;;;;;4945262;28;20030;-77
2022/05/24 05:36:19;;;;;;;16.05;10.32;;;12.50;99.90;;;;;;4943269;29;20051;-76
2022/05/24 05:38:48;;;;;;;15.20;9.88;;;12.40;99.90;;;;;;4935832;29;20057;-77
2022/05/24 05:41:14;;;;;;;20.05;10.05;;;12.50;99.90;;;;;;4944498;29;20130;-77
2022/05/24 05:43:40;;;;;;;15.45;9.63;;;12.50;99.90;;;;;;4946900;29;20480;-76
2022/05/24 05:46:07;;;;;;;18.33;9.25;;;12.60;99.90;;;;;;4938710;29;20051;-79
2022/05/24 05:48:33;;;;;;;19.23;9.55;;;12.60;99.90;;;;;;4930870;29;20624;-78
2022/05/24 05:50:58;;;;;;;14.32;8.82;;;12.70;99.90;;;;;;4949352;29;20035;-76
2022/05/24 05:53:24;;;;;;;15.63;8.70;;;12.70;99.90;;;;;;4947968;29;20031;-76
2022/05/24 05:55:49;;;;;;;14.32;8.32;;;12.70;99.90;;;;;;4952310;28;20058;-76
2022/05/24 05:58:15;;;;;;;12.50;8.70;;;12.70;99.90;;;;;;4951471;29;20016;-76
2022/05/24 06:00:41;;;;;;;14.55;8.82;;;12.70;99.90;;;;;;4950591;28;20071;-76
2022/05/24 06:03:08;;;;;;;14.90;8.32;;;12.70;99.90;;;;;;4949588;28;20095;-76
2022/05/24 06:05:34;;;;;;;16.27;8.63;;;12.70;99.90;;;;;;4951016;28;20037;-76
2022/05/24 06:08:48;;;;;;;15.57;8.68;;;12.70;99.90;;;;;;4952406;28;20436;-76
2022/05/24 06:11:13;;;;;;;13.57;7.20;;;12.80;99.90;;;;;;4929711;29;20102;-76
2022/05/24 06:13:39;;;;;;;14.75;7.63;;;12.70;99.90;;;;;;4948423;29;20039;-76
2022/05/24 06:16:04;;;;;;;13.05;6.95;;;12.70;99.90;;;;;;4937130;29;20090;-76
2022/05/24 06:18:30;;;;;;;14.13;7.25;;;12.80;99.90;;;;;;4951704;28;20563;-77
2022/05/24 06:20:55;;;;;;;11.88;7.10;;;12.80;99.90;;;;;;4953410;29;20063;-76
2022/05/24 06:23:21;;;;;;;17.75;8.10;;;12.90;99.90;;;;;;4954795;28;20027;-77
2022/05/24 06:25:47;;;;;;;12.15;6.05;;;12.90;99.90;;;;;;4950649;28;20118;-74
2022/05/24 06:28:14;;;;;;;12.05;6.75;;;12.90;99.90;;;;;;4942871;29;20490;-74
2022/05/24 06:30:40;;;;;;;13.57;7.32;;;12.90;99.90;;;;;;4955826;29;20081;-76
2022/05/24 06:33:06;;;;;;;13.15;6.47;;;12.90;99.90;;;;;;4955835;28;20114;-75
2022/05/24 06:38:53;;;;;;;14.48;8.45;;;13.00;99.90;;;;;;4954886;29;20123;-77
2022/05/24 06:41:19;;;;;;;10.65;7.15;;;12.90;99.90;;;;;;4951822;28;20142;-77
2022/05/24 06:43:44;;;;;;;9.15;7.65;;;12.90;99.90;;;;;;4951906;28;20031;-77
2022/05/24 06:46:10;;;;;;;12.68;8.07;;;13.00;99.90;;;;;;4953353;29;20067;-75
2022/05/24 06:48:38;;;;;;;14.48;9.00;;;13.10;99.90;;;;;;4969109;28;20042;-77
2022/05/24 06:51:15;;;;;;;12.35;9.13;;;13.20;99.90;;;;;;4952846;28;20518;-77
2022/05/24 06:53:42;;;;;;;14.27;9.57;;;13.30;99.90;;;;;;4936670;29;20036;-78
2022/05/24 06:56:08;;;;;;;15.57;10.05;;;13.50;99.90;;;;;;4950813;28;20419;-78
2022/05/24 06:58:34;;;;;;;15.38;10.15;;;13.50;99.90;;;;;;4954897;28;20024;-77
2022/05/24 07:03:45;;;;;;;15.60;9.57;;;13.70;99.90;;;;;;4955847;29;20078;-77
2022/05/24 07:06:15;;;;;;;11.40;8.30;;;13.70;99.90;;;;;;4948487;28;20500;-77
2022/05/24 07:08:40;;;;;;;13.77;8.27;;;13.90;99.90;;;;;;4951079;28;20019;-78
2022/05/24 07:11:06;;;;;;;10.57;7.40;;;14.00;99.90;;;;;;4952121;28;20035;-77
2022/05/24 07:13:31;;;;;;;11.35;8.05;;;14.10;99.90;;;;;;4936857;29;20023;-77
2022/05/24 07:15:57;;;;;;;12.80;7.63;;;14.20;99.90;;;;;;4951200;28;20062;-78
2022/05/24 07:18:25;;;;;;;9.73;6.55;;;14.40;99.90;;;;;;4945624;28;20511;-78
2022/05/24 07:20:50;;;;;;;9.50;6.88;;;14.50;99.90;;;;;;4953933;28;20035;-78
2022/05/24 07:23:18;;;;;;;8.45;6.35;;;14.60;99.90;;;;;;4951589;28;20392;-76
2022/05/24 07:25:46;;;;;;;8.18;5.50;;;14.80;99.90;;;;;;4944403;28;20555;-77
2022/05/24 07:28:15;;;;;;;7.65;5.05;;;14.90;99.90;;;;;;4953448;29;20435;-78
2022/05/24 07:30:41;;;;;;;8.10;4.88;;;14.90;99.90;;;;;;4951359;28;20035;-78
2022/05/24 07:33:07;;;;;;;9.35;4.80;;;14.70;99.90;;;;;;4952198;28;20448;-78
2022/05/24 07:35:33;;;;;;;8.18;4.88;;;14.50;99.90;;;;;;4947332;28;20023;-77
2022/05/24 07:37:58;;;;;;;8.88;5.03;;;14.40;99.90;;;;;;4953167;29;20094;-77
2022/05/24 07:46:01;;;;;;;8.73;7.70;;;14.70;99.90;;;;;;4944898;29;20046;-78
2022/05/24 07:48:27;;;;;;;10.75;8.05;;;15.00;99.90;;;;;;4952091;28;20028;-77
2022/05/24 07:50:52;;;;;;;11.95;8.15;;;15.20;99.90;;;;;;4954137;29;20083;-76
2022/05/24 07:53:18;;;;;;;11.80;8.05;;;15.40;99.90;;;;;;4950744;28;20030;-76
2022/05/24 07:55:44;;;;;;;10.05;8.48;;;15.50;99.90;;;;;;4946545;28;20122;-76
2022/05/24 07:58:11;;;;;;;11.20;9.90;;;15.40;99.90;;;;;;4940014;29;20061;-77
2022/05/24 08:00:38;;;;;;;9.20;8.05;;;15.30;99.90;;;;;;4950173;28;20043;-76
2022/05/24 08:03:06;;;;;;;7.75;7.05;;;15.30;99.90;;;;;;4949123;28;20075;-77
2022/05/24 08:05:33;;;;;;;8.80;7.45;;;15.40;99.90;;;;;;4935214;29;20039;-77
2022/05/24 08:08:00;;;;;;;9.57;6.70;;;15.50;99.90;;;;;;4945488;28;20028;-77
2022/05/24 08:10:27;;;;;;;7.18;5.50;;;15.50;99.90;;;;;;4948946;28;20023;-77
2022/05/24 08:12:52;;;;;;;7.85;4.13;;;15.50;99.90;;;;;;4953824;29;20023;-77
2022/05/24 08:15:18;;;;;;;5.45;4.60;;;15.60;99.90;;;;;;4954145;29;20105;-77
2022/05/24 08:17:44;;;;;;;7.35;4.05;;;15.60;99.90;;;;;;4952886;28;20031;-78
2022/05/24 08:20:10;;;;;;;7.32;4.10;;;15.70;99.90;;;;;;4950845;28;20081;-77
2022/05/24 08:22:40;;;;;;;4.93;2.95;;;15.70;99.90;;;;;;4954638;29;20068;-77
2022/05/24 08:25:07;;;;;;;15.27;7.95;;;15.80;99.90;;;;;;4949856;28;20149;-78
2022/05/24 08:27:33;;;;;;;13.50;7.40;;;15.80;99.90;;;;;;4954348;29;20037;-77
2022/05/24 08:29:59;;;;;;;7.22;4.50;;;15.80;99.90;;;;;;4945617;28;20023;-78
2022/05/24 08:32:25;;;;;;;4.57;2.17;;;16.00;99.90;;;;;;4952353;29;20027;-78
2022/05/24 08:34:51;;;;;;;8.55;2.85;;;16.20;99.90;;;;;;4953422;29;20118;-78
2022/05/24 08:37:17;;;;;;;6.78;2.60;;;16.40;99.90;;;;;;4950135;28;20115;-78
2022/05/24 08:39:42;;;;;;;5.03;1.90;;;16.60;99.90;;;;;;4949743;29;20035;-78
2022/05/24 08:42:25;;;;;;;5.38;2.30;;;16.90;99.90;;;;;;4953754;29;20491;-78
2022/05/24 08:50:33;;;;;;;3.33;1.40;;;16.60;99.90;;;;;;4945707;28;20081;-79
2022/05/24 08:53:04;;;;;;;3.10;1.60;;;16.30;99.90;;;;;;4953909;28;20031;-78
2022/05/24 08:55:30;;;;;;;4.97;2.70;;;15.80;99.90;;;;;;4949731;29;20473;-78
2022/05/24 08:57:58;;;;;;;5.72;3.25;;;15.20;99.90;;;;;;4944518;29;20035;-78
2022/05/24 09:00:38;;;;;;;7.00;4.03;;;14.80;99.90;;;;;;4949961;28;20046;-77
2022/05/24 09:03:06;;;;;;;4.75;4.35;;;14.70;99.90;;;;;;4953929;29;20035;-77
2022/05/24 09:05:47;;;;;;;7.65;5.47;;;14.70;99.90;;;;;;4952950;29;20106;-78
2022/05/24 09:08:32;;;;;;;7.30;5.28;;;14.80;99.90;;;;;;4953935;29;20026;-78
2022/05/24 09:11:12;;;;;;;5.82;5.32;;;14.90;99.90;;;;;;4942943;28;20399;-78
2022/05/24 09:14:05;;;;;;;7.57;4.30;;;15.20;99.90;;;;;;4949407;28;20040;-77
2022/05/24 09:16:47;;;;;;;6.78;3.47;;;15.30;99.90;;;;;;4939928;29;20383;-78
2022/05/24 09:19:32;;;;;;;5.95;2.60;;;15.40;99.90;;;;;;4943699;29;20395;-77
2022/05/24 09:22:00;;;;;;;2.58;1.60;;;15.30;99.90;;;;;;4951212;29;20035;-77
2022/05/24 09:24:42;;;;;;;7.88;2.25;;;15.10;99.90;;;;;;4952675;28;20034;-77
2022/05/24 09:27:22;;;;;;;4.75;2.17;;;14.70;99.90;;;;;;4928712;29;20582;-77
2022/05/24 09:29:54;;;;;;;4.82;2.40;;;14.50;99.90;;;;;;4953218;29;20028;-78
2022/05/24 09:32:27;;;;;;;7.45;2.70;;;14.30;99.90;;;;;;4953252;29;20063;-77
2022/05/24 09:35:03;;;;;;;3.65;1.98;;;14.30;99.90;;;;;;4953303;28;20472;-78
2022/05/24 09:37:29;;;;;;;4.13;1.95;;;14.50;99.90;;;;;;4949101;29;20427;-77
2022/05/24 09:40:08;;;;;;;3.65;2.08;;;14.70;99.90;;;;;;4953372;29;20043;-78
2022/05/24 09:42:37;;;;;;;6.63;2.65;;;14.90;99.90;;;;;;4953789;29;20051;-78
2022/05/24 09:45:12;;;;;;;5.13;2.20;;;15.20;99.90;;;;;;4934643;29;20480;-78
2022/05/24 09:47:43;;;;;;;2.17;1.27;;;15.40;99.90;;;;;;4934935;29;20035;-78
2022/05/24 09:50:15;;;;;;;4.65;1.13;;;15.60;99.90;;;;;;4955763;28;20455;-76
2022/05/24 09:52:42;;;;;;;2.63;1.00;;;15.50;99.90;;;;;;4956546;28;20061;-76
2022/05/24 09:55:10;;;;;;;2.03;0.80;;;15.40;99.90;;;;;;4956940;29;20047;-76
2022/05/24 09:57:36;;;;;;;2.35;1.20;;;15.20;99.90;;;;;;4957509;28;20043;-77
2022/05/24 10:00:09;;;;;;;3.28;1.73;;;15.10;99.90;;;;;;4956515;29;20035;-77
2022/05/24 10:02:39;;;;;;;3.60;1.88;;;15.00;99.90;;;;;;4946986;29;20189;-76
2022/05/24 10:05:20;;;;;;;5.03;2.08;;;14.80;99.90;;;;;;4947659;29;20380;-76
2022/05/24 10:08:02;;;;;;;2.80;1.92;;;14.80;99.90;;;;;;4955056;29;20027;-76
2022/05/24 10:10:38;;;;;;;2.88;1.70;;;14.90;99.90;;;;;;4954132;28;20474;-76
2022/05/24 10:13:16;;;;;;;7.10;1.40;;;14.90;99.90;;;;;;4954433;29;20027;-77
2022/05/24 10:16:00;;;;;;;2.88;0.90;;;14.90;99.90;;;;;;4953530;29;20051;-79
2022/05/24 10:18:52;;;;;;;2.28;0.80;;;15.10;99.90;;;;;;4956713;29;20027;-77
2022/05/24 10:21:40;;;;;;;5.22;0.80;;;15.50;99.90;;;;;;4956873;29;20085;-78
2022/05/24 10:24:40;;;;;;;1.95;0.73;;;15.90;99.90;;;;;;4955384;29;20042;-77
2022/05/24 10:27:29;;;;;;;2.42;0.70;;;16.30;99.90;;;;;;4937410;29;20126;-78
2022/05/24 10:30:08;;;;;;;1.77;0.60;;;16.40;99.90;;;;;;4936641;29;21061;-77
2022/05/24 10:38:56;;;;;;;0.93;0.40;;;16.30;99.90;;;;;;4950418;29;20034;-77
2022/05/24 10:41:27;;;;;;;1.60;0.30;;;16.20;99.90;;;;;;4942717;28;20574;-76
2022/05/24 10:44:22;;;;;;;0.60;0.20;;;16.10;99.90;;;;;;4938760;29;20027;-77
2022/05/24 10:47:06;;;;;;;2.15;0.20;;;15.90;99.90;;;;;;4951719;29;20035;-77
2022/05/24 10:49:36;;;;;;;4.57;0.20;;;15.70;99.90;;;;;;4950601;28;20109;-77
2022/05/24 10:52:33;;;;;;;0.98;0.20;;;15.40;99.90;;;;;;4954682;29;20042;-77
2022/05/24 10:55:17;;;;;;;0.77;0.20;;;15.30;99.90;;;;;;4945758;28;20059;-77
2022/05/24 10:57:53;;;;;;;0.82;0.20;;;15.00;99.90;;;;;;4938186;29;20030;-78
2022/05/24 11:00:23;;;;;;;2.00;0.30;;;15.00;99.90;;;;;;4955370;28;20101;-77
2022/05/24 11:03:12;;;;;;;1.00;0.30;;;14.90;99.90;;;;;;4936768;28;20055;-78
2022/05/24 11:05:41;;;;;;;2.42;0.32;;;15.00;99.90;;;;;;4947142;29;20031;-78
2022/05/24 11:08:32;;;;;;;2.97;0.30;;;15.00;99.90;;;;;;4954105;28;20035;-78
2022/05/24 11:11:06;;;;;;;2.90;0.30;;;15.10;99.90;;;;;;4955467;29;20472;-78
2022/05/24 11:13:46;;;;;;;1.90;0.30;;;15.10;99.90;;;;;;4954464;28;20106;-78
2022/05/24 11:16:30;;;;;;;2.30;0.30;;;15.20;99.90;;;;;;4946774;29;20070;-77
2022/05/24 11:18:56;;;;;;;2.20;0.50;;;15.40;99.90;;;;;;4941247;28;20038;-78
2022/05/24 11:21:36;;;;;;;2.67;0.40;;;15.50;99.90;;;;;;4955896;29;20494;-78
2022/05/24 11:24:06;;;;;;;1.27;0.45;;;15.70;99.90;;;;;;4952812;28;20035;-78
2022/05/24 11:26:35;;;;;;;1.83;0.50;;;15.90;99.90;;;;;;4949849;29;20035;-78
2022/05/24 11:29:25;;;;;;;2.67;0.60;;;16.10;99.90;;;;;;4939242;29;20082;-78
2022/05/24 11:31:58;;;;;;;3.15;0.88;;;16.30;99.90;;;;;;4951725;29;20035;-78
2022/05/24 11:34:27;;;;;;;1.75;0.68;;;16.40;99.90;;;;;;4943980;29;20515;-78
2022/05/24 11:37:20;;;;;;;2.67;0.80;;;16.60;99.90;;;;;;4956071;28;20035;-78
2022/05/24 11:39:47;;;;;;;3.42;0.63;;;17.00;99.90;;;;;;4948666;28;20492;-78
2022/05/24 11:42:40;;;;;;;1.17;0.30;;;17.30;99.90;;;;;;4948675;29;20036;-79
2022/05/24 11:45:31;;;;;;;3.63;0.30;;;17.40;99.90;;;;;;4939987;29;20027;-78
2022/05/24 11:48:08;;;;;;;2.25;0.20;;;17.10;99.90;;;;;;4955161;29;20495;-77
2022/05/24 11:50:51;;;;;;;0.95;0.20;;;16.50;99.90;;;;;;4955850;29;20031;-77
2022/05/24 11:53:36;;;;;;;6.10;0.35;;;16.00;99.90;;;;;;4953844;28;20376;-77
2022/05/24 11:56:01;;;;;;;3.00;0.20;;;15.60;99.90;;;;;;4953480;28;20037;-78
2022/05/24 11:58:32;;;;;;;0.65;0.10;;;15.40;99.90;;;;;;4953836;29;20051;-77
2022/05/24 12:01:01;;;;;;;0.63;0.20;;;15.20;99.90;;;;;;4954590;29;20054;-77
2022/05/24 12:09:21;;;;;;;2.05;0.30;;;15.80;99.90;;;;;;4955357;29;20030;-79
2022/05/24 12:11:48;;;;;;;3.57;0.40;;;16.00;99.90;;;;;;4953660;28;20106;-79
2022/05/24 12:14:38;;;;;;;1.98;0.40;;;16.10;99.90;;;;;;4951097;28;20062;-78
2022/05/24 12:17:04;;;;;;;1.63;0.40;;;16.20;99.90;;;;;;4954483;29;20023;-78
2022/05/24 12:19:32;;;;;;;3.55;0.40;;;16.30;99.90;;;;;;4954193;29;20019;-78
2022/05/24 12:22:02;;;;;;;3.55;0.40;;;16.30;99.90;;;;;;4950282;28;20436;-78
2022/05/24 12:24:32;;;;;;;2.95;0.40;;;16.40;99.90;;;;;;4954463;28;20038;-78
2022/05/24 12:27:36;;;;;;;1.80;0.45;;;16.50;99.90;;;;;;4954153;29;20031;-79
2022/05/24 12:30:29;;;;;;;2.47;0.50;;;16.70;99.90;;;;;;4935668;29;20511;-78
2022/05/24 12:33:04;;;;;;;1.38;0.40;;;17.00;99.90;;;;;;4950927;29;20035;-78
2022/05/24 12:35:32;;;;;;;3.47;0.50;;;17.30;99.90;;;;;;4952572;28;20114;-78
2022/05/24 12:37:58;;;;;;;2.53;0.50;;;17.30;99.90;;;;;;4953835;29;20475;-79
2022/05/24 12:40:30;;;;;;;2.60;0.70;;;17.20;99.90;;;;;;4953198;28;20039;-79
2022/05/24 12:42:57;;;;;;;;;;;17.10;99.90;;;;;;4946818;29;20503;-78
2022/05/24 12:45:34;;;;;;;3.03;0.40;;;17.00;99.90;;;;;;4929368;29;20005;-78
2022/05/24 12:48:00;;;;;;;0.70;0.30;;;16.90;99.90;;;;;;4945529;28;20020;-79
2022/05/24 12:50:39;;;;;;;2.50;0.60;;;16.90;99.90;;;;;;4945902;28;20031;-78
2022/05/24 12:53:08;;;;;;;2.88;0.43;;;16.80;99.90;;;;;;4952815;29;20069;-78
2022/05/24 12:58:27;;;;;;;3.90;0.40;;;17.10;99.90;;;;;;4945605;29;20549;-78
2022/05/24 13:01:12;;;;;;;1.02;0.30;;;17.20;99.90;;;;;;4937221;28;20059;-78
2022/05/24 13:03:55;;;;;;;3.17;0.35;;;17.10;99.90;;;;;;4952448;29;20027;-78
2022/05/24 13:06:27;;;;;;;2.45;0.30;;;17.10;99.90;;;;;;4953726;28;20031;-78
2022/05/24 13:09:12;;;;;;;1.13;0.40;;;17.00;99.90;;;;;;4935405;28;20032;-78
2022/05/24 13:11:38;;;;;;;3.72;0.30;;;17.00;99.90;;;;;;4938282;29;20035;-78
2022/05/24 13:14:05;;;;;;;3.55;0.40;;;17.00;99.90;;;;;;4952958;29;20082;-78
2022/05/24 13:16:33;;;;;;;2.75;0.95;;;16.90;99.90;;;;;;4953131;29;20031;-78
2022/05/24 13:19:01;;;;;;;4.22;0.40;;;16.60;99.90;;;;;;4951225;29;20035;-77
2022/05/24 13:21:27;;;;;;;2.83;0.30;;;15.90;99.90;;;;;;4951825;28;20078;-76
2022/05/24 13:24:16;;;;;;;0.50;0.20;;;15.10;99.90;;;;;;4944034;29;20051;-76
2022/05/24 13:27:03;;;;;;;0.65;0.17;;;14.50;99.90;;;;;;4942759;28;20085;-75
2022/05/24 13:29:29;;;;;;;0.30;0.10;;;14.20;99.90;;;;;;4950125;29;20033;-77
2022/05/24 13:34:59;;;;;;;0.75;0.10;;;14.60;99.90;;;;;;4952219;28;20126;-77
2022/05/24 13:37:45;;;;;;;0.38;0.10;;;15.20;99.90;;;;;;4952827;29;20114;-77
2022/05/24 13:40:12;;;;;;;1.60;0.20;;;15.60;99.90;;;;;;4944768;29;20047;-77
2022/05/24 13:42:54;;;;;;;1.00;0.30;;;16.10;99.90;;;;;;4943026;28;20020;-78
2022/05/24 13:45:21;;;;;;;1.63;0.30;;;16.40;99.90;;;;;;4957987;28;20027;-77
2022/05/24 13:47:54;;;;;;;1.77;0.60;;;16.60;99.90;;;;;;4952907;29;20487;-77
2022/05/24 13:50:44;;;;;;;2.42;0.57;;;16.70;99.90;;;;;;4953334;29;20059;-78
2022/05/24 13:53:35;;;;;;;2.28;0.60;;;16.80;99.90;;;;;;4948973;28;20571;-77
2022/05/24 13:56:06;;;;;;;1.27;0.50;;;17.00;99.90;;;;;;4949343;29;20035;-76
2022/05/24 13:58:31;;;;;;;2.03;0.57;;;17.20;99.90;;;;;;4950907;29;20031;-76
2022/05/24 14:01:10;;;;;;;1.30;0.40;;;17.50;99.90;;;;;;4950622;28;20065;-76
2022/05/24 14:03:56;;;;;;;3.70;0.40;;;17.60;99.90;;;;;;4939524;29;20031;-76
2022/05/24 14:06:25;;;;;;;2.25;0.50;;;17.80;99.90;;;;;;4953299;29;20030;-76